AirNav   Phillips 66 Aviation Fuel
 
 259 users online  

MO55 SSM Health St Louis University Hospital Heliport
St Louis, Missouri, USA

GOING TO ST LOUIS?


FAA INFORMATION EFFECTIVE 23 MAY 2019

Location

FAA Identifier: MO55
Lat/Long: 38-37-14.4600N / 090-14-23.7800W
38-37.241000N / 090-14.396333W
38.6206833 / -90.2399389
(estimated)
Elevation: 550 ft. / 168 m (estimated)
Variation: 02E (1985)
From city: 3 miles W of ST LOUIS, MO
Time zone: UTC -5 (UTC -6 during Standard Time)
Zip code: 63104

Heliport Operations

Heliport use: Private use, MEDICAL.
Activation date: 11/1988
Control tower: no
ARTCC: KANSAS CITY CENTER
FSS: SAINT LOUIS FLIGHT SERVICE STATION
Attendance: CONTINUOUS
Wind indicator: yes
Segmented circle: no
Lights: ACTVT FLOOD LGTS - 123.050.
Beacon: white-green-yellow (heliport)
24 HRS.

Heliport Communications

WX ASOS at CPS (5 nm SE): PHONE 618-332-0001
WX ASOS at STL (10 nm NW): PHONE 314-890-4790
WX AWOS-3 at ALN (19 nm NE): 128.0 (618-259-7231)
WX ASOS at SUS (19 nm W): 134.8 (314-890-7255)

Nearby radio navigation aids

VOR radial/distance  VOR name  Freq  Var
CSXr144/9.7CARDINAL VOR/DME116.4500E
TOYr241/16.6TROY VORTAC116.0004E
STLr141/18.3ST LOUIS VORTAC117.4001E
FTZr092/34.5FORISTELL VORTAC110.8005E

 
NDB name  Hdg/Dist  Freq  Var  ID
ZUMAY171/10.240401WST ... -
ACORE306/10.435000ECP -.-. .--.
EAVES104/14.822701WFZ ..-. --..
CIVIC MEMORIAL209/18.426301WCVM -.-. ...- --

Heliport Services

Runway Information

Helipad H1

Dimensions: 50 x 50 ft. / 15 x 15 m
Surface: metal
ROOFTOP.
Runway edge lights: FLD
Latitude: 38-37.241000N
Longitude: 090-14.396333W
Elevation: 550.0 ft.
Traffic pattern: leftleft

Heliport Ownership and Management from official FAA records

Ownership: Privately-owned
Owner: SSM HEALTH ST. LOUIS UNIV. HOSPITAL
1015 CORPORATE SQUARE DR.
ST LOUIS, MO 63132
Phone (314) 989-2155
Manager: RODGER GLAUS
1015 CORPORATE SQ DR., SUITE 110
ST LOUIS, MO 63132
Phone (314) 989-2155
ADDITIONAL CONTACT: LESLIE THORNBURG, 314-989-6134, LESLIE.THONBURG@SSMHEALTH.COM

Additional Remarks

DUE TO MULTIPLE OBSTRUCTIONS WITHIN H1 TLOF, FATO, AND SAFETY AREAS, NO CLEAR INGRESS/EGRESS EXISTS FOR THIS HELIPORT. EXERCISE CAUTION.
FOR CD CTC ST LOUIS APCH AT 314-890-1018.
A52-H1 30' BLDG (LGTD) 150' W & 30' SIGN STRUCTURE 35' S OF PAD.

Instrument Procedures

There are no published instrument procedures at MO55.

Some nearby airports with instrument procedures:

KCPS - St Louis Downtown Airport (5 nm SE)
KSTL - St Louis Lambert International Airport (10 nm NW)
1H0 - Creve Coeur Airport (14 nm NW)
KALN - St Louis Regional Airport (19 nm NE)
KSUS - Spirit of St Louis Airport (19 nm W)
KBLV - Scott Air Force Base/MidAmerica Airport (20 nm E)
 
Loc | Ops | Rwys | IFR | FBO | Links
Com | Nav | Svcs | Stats | Notes

Kansas City Aviation Department
 
Area around MO55 (SSM Health St Louis University Hospital Heliport)
 
Road maps at: MapQuest Bing Google
 
Aerial photo
No photo
 
Sectional chart

 
Airport distance calculator
Flying to SSM Health St Louis University Hospital Heliport? Find the distance to fly.

From to MO55

Sunrise and sunset
Times for 20-Jun-2019
 Local
(UTC-5)
 Zulu
(UTC)
Morning civil twilight05:0610:06
Sunrise05:3710:37
Sunset20:2801:28
Evening civil twilight20:5901:59

Current date and time
Zulu (UTC)  20-Jun-2019 08:30:55
Local (UTC-5)  20-Jun-2019 03:30:55
 
METAR
KCPS 
5nm SE 
200753Z 31010KT 10SM BKN017 OVC027 21/18 A2962 RMK AO2 SLP026 T02110178
KSTL 
10nm NW 
200808Z 32010KT 10SM BKN013 OVC027 20/16 A2964 RMK AO2 T02000161
KALN 
18nm NE 
200815Z AUTO 31009KT 290V360 10SM OVC013 19/17 A2963 RMK AO2 T01860174
KSUS 
19nm W 
200754Z AUTO 29007KT 10SM OVC013 20/18 A2964 RMK AO2 SLP030 T02000178
KBLV 
20nm E 
200811Z AUTO 28003KT 10SM BKN016 BKN022 OVC028 21/19 A2960 RMK AO2 CIG 016V023 SLP023 $
TAF
KCPS 
5nm SE 
200520Z 2006/2106 28008KT P6SM VCSH OVC020 FM200800 29006KT P6SM OVC015 FM201100 31009KT P6SM OVC008 FM201600 31007KT P6SM BKN020 FM201900 30007KT P6SM SCT030 FM210000 23005KT P6SM FEW250
KSTL 
10nm NW 
200520Z 2006/2112 29010KT P6SM VCSH OVC020 FM200800 29009KT P6SM OVC015 FM201100 31009KT P6SM OVC008 FM201600 31007KT P6SM BKN020 FM201900 30007KT P6SM SCT030 FM210000 23005KT P6SM FEW250
KSUS 
19nm W 
200520Z 2006/2106 28008KT P6SM VCSH OVC020 FM200800 29006KT P6SM OVC015 FM201100 31009KT P6SM OVC008 FM201600 31007KT P6SM BKN020 FM201900 30007KT P6SM SCT030 FM210000 23005KT P6SM FEW250
KBLV 
20nm E 
200000Z 2000/2106 24009KT 9999 SCT030 BKN035 QNH2957INS TEMPO 2010/2013 32010G15KT OVC003 BECMG 2013/2014 34015G20KT 9999 SCT030 QNH2970INS BECMG 2019/2020 VRB06KT 9999 SCT100 QNH2974INS TX28/2020Z TN19/2011Z
NOTAMs
Click for the latest NOTAMs
NOTAMs are issued by the DoD/FAA and will open in a separate window not controlled by AirNav.

 

 
 

Would you like to see your business listed on this page?

 If your business provides an interesting product or service to pilots, flight crews, aircraft, or users of the SSM Health St Louis University Hospital Heliport, you should consider listing it here.  To start the listing process, click on the button below
 
Add a business
 

Other Pages about SSM Health St Louis University Hospital Heliport

Update a link
 
Copyright © AirNav, LLC. All rights reserved. Privacy Policy  Contact